Aérodrome :
LOGIN :

S'inscrire | Disclaimer

   EN    FR    IT 

 










Légende :    VFR   VFR Marginal   IFR   IFR Intensif   IFR Très Intensif
Visi : 
Plafond : 
>= 8 km
>= 3000ft
5 à 8 km
1000 à 3000 ft
1500m à 5 km
500 à 1000 ft
800 à 1500m
200 à 500 ft
< 800m
< 200 ft
Symboles :   Orages  Brouillard  Fortes neiges  Fortes précipitations  Vent > 20 kt
SIGMETs :   Divers  Orages  Givrage  Turbulence  Onde Orograph.  Cendres Volcan.







- Altitude de l'aérodrome : 1302 ft
- Code IATA : GNB
- Voir les cartes d'approche


LFLS - Grenoble / St. Geoirs

DERNIER METAR :
  • 222000Z AUTO 09007KT 9999 -RA VCTS ///CB 18/16 Q1017

METARs EXPIRÉS :
  • 221930Z AUTO 10005KT 9999 VCTS ///CB 18/16 Q1016
  • 221900Z AUTO 07005KT 9999 -RA VCTS FEW072/// BKN100/// OVC120/// ///CB 18/16 Q1016 TEMPO VRB15G25KT 4000 SHRA
  • 221830Z AUTO VRB02KT 9999 TSRA SCT062/// OVC072/// ///CB 17/15 Q1017 TEMPO VRB15G25KT 4000 SHRA
  • 221800Z AUTO VRB06KT 9999 -TSRA FEW016/// BKN058/// BKN068/// ///CB 17/15 Q1017 TEMPO VRB15G25KT 2000 TSRA
  • 221730Z AUTO 18006KT 150V230 9999 -TSRA FEW015/// SCT098/// OVC110/// ///CB 16/14 Q1015 TEMPO VRB15G25KT 2000 TSRA

TAF TAF LFLS
Valide du 22 à 15h jusqu'au 23 à 15h UTC


221400Z 2215/2315 32010KT 9999 SCT060
TEMPO 2215/2222 4000 SHRA BKN050TCU BKN080
PROB40
TEMPO 2215/2220 VRB15G25KT 2000 TSRA BKN050CB
PROB30
TEMPO 2215/2219 1500 TSGR SCT020 BKN040CB
BECMG 2216/2218 10005KT
PROB30
TEMPO 2305/2307 -SHRA SCT060TCU
BECMG 2308/2310 28006KT SCT035
ATIS : +33 4 76 65 55 89
Pas de NOTAMs connus pour ce terrain.
2 SIGMETs publiés pour la FIR Marseille (LFMM) :
 
Orages noyés dans la masse
LFMM SIGMET 5 VALID 222000/222200 LFPW
LFMM MARSEILLE FIR/UIR EMBD TS FCST WI N4630 E00400 - N4630 E00700 - N4515 E00700 - N4430 E00330 TOP FL380 MOV NE 25KT NC=
Orages noyés dans la masse
LFMM SIGMET 4 VALID 221800/222000 LFPW
LFMM MARSEILLE FIR/UIR EMBD TS FCST WI N4630 E00345 - N4630 E00700 - N4500 E00700 - N4430 E00345 TOP FL400 MOV NE 15KT NC=



MET'MAP, la Météo Aéronautique d'un coup d'oeil ! - Copyright ORBIFLY Décembre 2007 - Disclaimer

ORBIFLY MET'MAP TEAM :

Programmation & Développement : Alexandra Zaïnal
Conception & Développement : Baudouin d'Aumeries
Co-Programmation & Développement : Marc-Olivier Méhu
Soutien technique & logistique : Manuel Goepfert

Contact : metmap@orbifly.com




SOURCES & CREDITS :

   NOAA